sensor_id;sensor_type;location;lat;lon;timestamp;temperature;humidity
49465;DHT22;35358;49.342;8.802;2023-02-15T00:01:43;0.90;99.90
49465;DHT22;35358;49.342;8.802;2023-02-15T00:04:16;0.90;99.90
49465;DHT22;35358;49.342;8.802;2023-02-15T00:06:43;1.00;99.90
49465;DHT22;35358;49.342;8.802;2023-02-15T00:09:09;0.90;99.90
49465;DHT22;35358;49.342;8.802;2023-02-15T00:11:35;0.90;99.90
49465;DHT22;35358;49.342;8.802;2023-02-15T00:14:22;0.90;99.90
49465;DHT22;35358;49.342;8.802;2023-02-15T00:16:50;1.00;99.90
49465;DHT22;35358;49.342;8.802;2023-02-15T00:19:18;1.00;99.90
49465;DHT22;35358;49.342;8.802;2023-02-15T00:21:47;1.00;99.90
49465;DHT22;35358;49.342;8.802;2023-02-15T00:24:15;1.10;99.90
49465;DHT22;35358;49.342;8.802;2023-02-15T00:26:42;1.00;99.90
49465;DHT22;35358;49.342;8.802;2023-02-15T00:29:08;1.00;99.90
49465;DHT22;35358;49.342;8.802;2023-02-15T00:31:39;1.00;99.90
49465;DHT22;35358;49.342;8.802;2023-02-15T00:36:38;1.00;99.90
49465;DHT22;35358;49.342;8.802;2023-02-15T00:39:07;1.00;99.90
49465;DHT22;35358;49.342;8.802;2023-02-15T00:41:33;1.00;99.90
49465;DHT22;35358;49.342;8.802;2023-02-15T00:43:59;1.00;99.90
49465;DHT22;35358;49.342;8.802;2023-02-15T00:46:27;1.20;99.90
49465;DHT22;35358;49.342;8.802;2023-02-15T00:48:55;1.20;99.90
49465;DHT22;35358;49.342;8.802;2023-02-15T00:51:21;1.10;99.90
49465;DHT22;35358;49.342;8.802;2023-02-15T00:53:47;1.20;99.90
49465;DHT22;35358;49.342;8.802;2023-02-15T00:56:15;1.20;99.90
49465;DHT22;35358;49.342;8.802;2023-02-15T00:58:43;1.10;99.90
49465;DHT22;35358;49.342;8.802;2023-02-15T01:01:13;1.00;99.90
49465;DHT22;35358;49.342;8.802;2023-02-15T01:03:40;1.00;99.90
49465;DHT22;35358;49.342;8.802;2023-02-15T01:06:11;1.00;99.90
49465;DHT22;35358;49.342;8.802;2023-02-15T01:08:36;1.00;99.90
49465;DHT22;35358;49.342;8.802;2023-02-15T01:11:04;0.90;99.90
49465;DHT22;35358;49.342;8.802;2023-02-15T01:13:34;1.00;99.90
49465;DHT22;35358;49.342;8.802;2023-02-15T01:16:00;0.90;99.90
49465;DHT22;35358;49.342;8.802;2023-02-15T01:18:25;1.00;99.90
49465;DHT22;35358;49.342;8.802;2023-02-15T01:20:51;1.00;99.90
49465;DHT22;35358;49.342;8.802;2023-02-15T01:23:17;1.00;99.90
49465;DHT22;35358;49.342;8.802;2023-02-15T01:25:43;1.00;99.90
49465;DHT22;35358;49.342;8.802;2023-02-15T01:28:08;1.10;99.90
49465;DHT22;35358;49.342;8.802;2023-02-15T01:30:36;1.00;99.90
49465;DHT22;35358;49.342;8.802;2023-02-15T01:33:04;1.00;99.90
49465;DHT22;35358;49.342;8.802;2023-02-15T01:35:30;1.00;99.90
49465;DHT22;35358;49.342;8.802;2023-02-15T01:37:56;1.00;99.90
49465;DHT22;35358;49.342;8.802;2023-02-15T01:40:25;1.10;99.90
49465;DHT22;35358;49.342;8.802;2023-02-15T01:42:54;1.10;99.90
49465;DHT22;35358;49.342;8.802;2023-02-15T01:50:32;1.10;99.90
49465;DHT22;35358;49.342;8.802;2023-02-15T01:53:55;1.00;99.90
49465;DHT22;35358;49.342;8.802;2023-02-15T01:56:08;1.00;99.90
49465;DHT22;35358;49.342;8.802;2023-02-15T01:58:36;1.00;99.90
49465;DHT22;35358;49.342;8.802;2023-02-15T02:01:04;1.10;99.90
49465;DHT22;35358;49.342;8.802;2023-02-15T02:04:02;1.10;99.90
49465;DHT22;35358;49.342;8.802;2023-02-15T02:06:26;1.10;99.90
49465;DHT22;35358;49.342;8.802;2023-02-15T02:08:53;1.10;99.90
49465;DHT22;35358;49.342;8.802;2023-02-15T02:11:19;1.10;99.90
49465;DHT22;35358;49.342;8.802;2023-02-15T02:13:48;1.10;99.90
49465;DHT22;35358;49.342;8.802;2023-02-15T02:44:43;1.10;99.90
49465;DHT22;35358;49.342;8.802;2023-02-15T02:47:18;1.00;99.90
49465;DHT22;35358;49.342;8.802;2023-02-15T02:49:58;1.00;99.90
49465;DHT22;35358;49.342;8.802;2023-02-15T02:52:37;1.10;99.90
49465;DHT22;35358;49.342;8.802;2023-02-15T02:55:16;1.00;99.90
49465;DHT22;35358;49.342;8.802;2023-02-15T03:00:29;1.00;99.90
49465;DHT22;35358;49.342;8.802;2023-02-15T03:03:08;1.00;99.90
49465;DHT22;35358;49.342;8.802;2023-02-15T03:05:41;1.00;99.90
49465;DHT22;35358;49.342;8.802;2023-02-15T03:08:16;1.10;99.90
49465;DHT22;35358;49.342;8.802;2023-02-15T03:10:48;1.10;99.90
49465;DHT22;35358;49.342;8.802;2023-02-15T03:13:18;1.10;99.90
49465;DHT22;35358;49.342;8.802;2023-02-15T03:15:45;1.10;99.90
49465;DHT22;35358;49.342;8.802;2023-02-15T03:18:34;1.10;99.90
49465;DHT22;35358;49.342;8.802;2023-02-15T03:21:04;1.10;99.90
49465;DHT22;35358;49.342;8.802;2023-02-15T03:23:33;1.20;99.90
49465;DHT22;35358;49.342;8.802;2023-02-15T03:26:02;1.20;99.90
49465;DHT22;35358;49.342;8.802;2023-02-15T03:28:38;1.20;99.90
49465;DHT22;35358;49.342;8.802;2023-02-15T03:31:07;1.20;99.90
49465;DHT22;35358;49.342;8.802;2023-02-15T03:33:36;1.20;99.90
49465;DHT22;35358;49.342;8.802;2023-02-15T03:36:12;1.20;99.90
49465;DHT22;35358;49.342;8.802;2023-02-15T03:39:01;1.10;99.90
49465;DHT22;35358;49.342;8.802;2023-02-15T03:41:36;1.20;99.90
49465;DHT22;35358;49.342;8.802;2023-02-15T03:44:15;1.20;99.90
49465;DHT22;35358;49.342;8.802;2023-02-15T03:46:54;1.20;99.90
49465;DHT22;35358;49.342;8.802;2023-02-15T03:49:40;1.20;99.90
49465;DHT22;35358;49.342;8.802;2023-02-15T03:52:09;1.20;99.90
49465;DHT22;35358;49.342;8.802;2023-02-15T03:54:36;1.20;99.90
49465;DHT22;35358;49.342;8.802;2023-02-15T03:57:20;1.20;99.90
49465;DHT22;35358;49.342;8.802;2023-02-15T04:00:19;1.20;99.90
49465;DHT22;35358;49.342;8.802;2023-02-15T04:05:44;1.30;99.90
49465;DHT22;35358;49.342;8.802;2023-02-15T04:08:11;1.30;99.90
49465;DHT22;35358;49.342;8.802;2023-02-15T04:10:39;1.40;99.90
49465;DHT22;35358;49.342;8.802;2023-02-15T04:13:24;1.40;99.90
49465;DHT22;35358;49.342;8.802;2023-02-15T04:15:54;1.40;99.90
49465;DHT22;35358;49.342;8.802;2023-02-15T04:18:36;1.40;99.90
49465;DHT22;35358;49.342;8.802;2023-02-15T04:21:22;1.40;99.90
49465;DHT22;35358;49.342;8.802;2023-02-15T04:24:06;1.40;99.90
49465;DHT22;35358;49.342;8.802;2023-02-15T04:26:53;1.40;99.90
49465;DHT22;35358;49.342;8.802;2023-02-15T04:29:20;1.50;99.90
49465;DHT22;35358;49.342;8.802;2023-02-15T04:31:51;1.50;99.90
49465;DHT22;35358;49.342;8.802;2023-02-15T04:34:17;1.60;99.90
49465;DHT22;35358;49.342;8.802;2023-02-15T04:36:43;1.60;99.90
49465;DHT22;35358;49.342;8.802;2023-02-15T04:39:11;1.70;99.90
49465;DHT22;35358;49.342;8.802;2023-02-15T04:41:39;1.80;99.90
49465;DHT22;35358;49.342;8.802;2023-02-15T04:44:05;1.80;99.90
49465;DHT22;35358;49.342;8.802;2023-02-15T04:46:31;1.80;99.90
49465;DHT22;35358;49.342;8.802;2023-02-15T04:48:56;1.70;99.90
49465;DHT22;35358;49.342;8.802;2023-02-15T04:51:22;1.80;99.90
49465;DHT22;35358;49.342;8.802;2023-02-15T04:53:51;1.80;99.90
49465;DHT22;35358;49.342;8.802;2023-02-15T04:56:22;1.90;99.90
49465;DHT22;35358;49.342;8.802;2023-02-15T04:58:48;1.90;99.90
49465;DHT22;35358;49.342;8.802;2023-02-15T05:01:14;1.90;99.90
49465;DHT22;35358;49.342;8.802;2023-02-15T05:03:42;1.90;99.90
49465;DHT22;35358;49.342;8.802;2023-02-15T05:06:07;1.90;99.90
49465;DHT22;35358;49.342;8.802;2023-02-15T05:08:36;1.90;99.90
49465;DHT22;35358;49.342;8.802;2023-02-15T05:11:01;2.00;99.90
49465;DHT22;35358;49.342;8.802;2023-02-15T05:13:27;1.90;99.90
49465;DHT22;35358;49.342;8.802;2023-02-15T05:15:52;2.00;99.90
49465;DHT22;35358;49.342;8.802;2023-02-15T05:18:21;2.00;99.90
49465;DHT22;35358;49.342;8.802;2023-02-15T05:20:47;2.00;99.90
49465;DHT22;35358;49.342;8.802;2023-02-15T05:23:17;2.10;99.90
49465;DHT22;35358;49.342;8.802;2023-02-15T05:25:47;2.10;99.90
49465;DHT22;35358;49.342;8.802;2023-02-15T05:28:32;2.00;99.90
49465;DHT22;35358;49.342;8.802;2023-02-15T05:31:05;2.00;99.90
49465;DHT22;35358;49.342;8.802;2023-02-15T05:33:32;2.00;99.90
49465;DHT22;35358;49.342;8.802;2023-02-15T05:35:57;2.00;99.90
49465;DHT22;35358;49.342;8.802;2023-02-15T05:38:23;2.00;99.90
49465;DHT22;35358;49.342;8.802;2023-02-15T05:40:51;2.00;99.90
49465;DHT22;35358;49.342;8.802;2023-02-15T05:43:16;2.10;99.90
49465;DHT22;35358;49.342;8.802;2023-02-15T05:45:49;2.00;99.90
49465;DHT22;35358;49.342;8.802;2023-02-15T05:48:18;2.00;99.90
49465;DHT22;35358;49.342;8.802;2023-02-15T05:50:44;1.90;99.90
49465;DHT22;35358;49.342;8.802;2023-02-15T05:53:10;1.90;99.90
49465;DHT22;35358;49.342;8.802;2023-02-15T05:55:40;2.00;99.90
49465;DHT22;35358;49.342;8.802;2023-02-15T05:58:06;2.00;99.90
49465;DHT22;35358;49.342;8.802;2023-02-15T06:00:33;2.00;99.90
49465;DHT22;35358;49.342;8.802;2023-02-15T06:03:01;2.00;99.90
49465;DHT22;35358;49.342;8.802;2023-02-15T06:05:29;1.90;99.90
49465;DHT22;35358;49.342;8.802;2023-02-15T06:07:54;1.90;99.90
49465;DHT22;35358;49.342;8.802;2023-02-15T06:10:20;1.90;99.90
49465;DHT22;35358;49.342;8.802;2023-02-15T06:12:46;1.90;99.90
49465;DHT22;35358;49.342;8.802;2023-02-15T06:15:14;1.90;99.90
49465;DHT22;35358;49.342;8.802;2023-02-15T06:17:42;1.90;99.90
49465;DHT22;35358;49.342;8.802;2023-02-15T06:20:09;1.70;99.90
49465;DHT22;35358;49.342;8.802;2023-02-15T06:22:35;1.80;99.90
49465;DHT22;35358;49.342;8.802;2023-02-15T06:25:01;1.80;99.90
49465;DHT22;35358;49.342;8.802;2023-02-15T06:27:27;1.70;99.90
49465;DHT22;35358;49.342;8.802;2023-02-15T06:29:55;1.70;99.90
49465;DHT22;35358;49.342;8.802;2023-02-15T06:32:20;1.70;99.90
49465;DHT22;35358;49.342;8.802;2023-02-15T06:34:48;1.80;99.90
49465;DHT22;35358;49.342;8.802;2023-02-15T06:37:14;1.80;99.90
49465;DHT22;35358;49.342;8.802;2023-02-15T06:39:39;1.60;99.90
49465;DHT22;35358;49.342;8.802;2023-02-15T06:42:08;1.60;99.90
49465;DHT22;35358;49.342;8.802;2023-02-15T06:44:35;1.60;99.90
49465;DHT22;35358;49.342;8.802;2023-02-15T06:47:01;1.70;99.90
49465;DHT22;35358;49.342;8.802;2023-02-15T06:49:27;1.70;99.90
49465;DHT22;35358;49.342;8.802;2023-02-15T06:51:52;1.70;99.90
49465;DHT22;35358;49.342;8.802;2023-02-15T06:54:18;1.50;99.90
49465;DHT22;35358;49.342;8.802;2023-02-15T06:56:43;1.50;99.90
49465;DHT22;35358;49.342;8.802;2023-02-15T06:59:11;1.70;99.90
49465;DHT22;35358;49.342;8.802;2023-02-15T07:01:37;1.60;99.90
49465;DHT22;35358;49.342;8.802;2023-02-15T07:04:03;1.60;99.90
49465;DHT22;35358;49.342;8.802;2023-02-15T07:06:34;1.50;99.90
49465;DHT22;35358;49.342;8.802;2023-02-15T07:09:00;1.60;99.90
49465;DHT22;35358;49.342;8.802;2023-02-15T07:11:26;1.60;99.90
49465;DHT22;35358;49.342;8.802;2023-02-15T07:14:11;1.60;99.90
49465;DHT22;35358;49.342;8.802;2023-02-15T07:16:36;1.70;99.90
49465;DHT22;35358;49.342;8.802;2023-02-15T07:19:02;1.70;99.90
49465;DHT22;35358;49.342;8.802;2023-02-15T07:21:28;1.70;99.90
49465;DHT22;35358;49.342;8.802;2023-02-15T07:23:57;1.70;99.90
49465;DHT22;35358;49.342;8.802;2023-02-15T07:26:23;1.70;99.90
49465;DHT22;35358;49.342;8.802;2023-02-15T07:28:49;1.70;99.90
49465;DHT22;35358;49.342;8.802;2023-02-15T07:31:17;1.60;99.90
49465;DHT22;35358;49.342;8.802;2023-02-15T07:33:45;1.40;99.90
49465;DHT22;35358;49.342;8.802;2023-02-15T07:36:11;1.50;99.90
49465;DHT22;35358;49.342;8.802;2023-02-15T07:38:41;1.50;99.90
49465;DHT22;35358;49.342;8.802;2023-02-15T07:41:08;1.40;99.90
49465;DHT22;35358;49.342;8.802;2023-02-15T07:43:36;1.30;99.90
49465;DHT22;35358;49.342;8.802;2023-02-15T07:46:04;1.40;99.90
49465;DHT22;35358;49.342;8.802;2023-02-15T07:48:30;1.40;99.90
49465;DHT22;35358;49.342;8.802;2023-02-15T07:51:00;1.40;99.90
49465;DHT22;35358;49.342;8.802;2023-02-15T07:53:25;1.50;99.90
49465;DHT22;35358;49.342;8.802;2023-02-15T07:55:51;1.50;99.90
49465;DHT22;35358;49.342;8.802;2023-02-15T07:58:20;1.70;99.90
49465;DHT22;35358;49.342;8.802;2023-02-15T08:00:48;1.70;99.90
49465;DHT22;35358;49.342;8.802;2023-02-15T08:03:23;1.70;99.90
49465;DHT22;35358;49.342;8.802;2023-02-15T08:05:56;1.70;99.90
49465;DHT22;35358;49.342;8.802;2023-02-15T08:08:26;1.90;99.90
49465;DHT22;35358;49.342;8.802;2023-02-15T08:14:01;1.80;99.90
49465;DHT22;35358;49.342;8.802;2023-02-15T08:19:01;1.60;99.90
49465;DHT22;35358;49.342;8.802;2023-02-15T08:21:28;1.60;99.90
49465;DHT22;35358;49.342;8.802;2023-02-15T08:23:56;1.60;99.90
49465;DHT22;35358;49.342;8.802;2023-02-15T08:26:23;1.70;99.90
49465;DHT22;35358;49.342;8.802;2023-02-15T08:28:50;1.90;99.90
49465;DHT22;35358;49.342;8.802;2023-02-15T08:31:18;1.90;99.90
49465;DHT22;35358;49.342;8.802;2023-02-15T08:33:48;1.80;99.90
49465;DHT22;35358;49.342;8.802;2023-02-15T08:36:16;1.80;99.90
49465;DHT22;35358;49.342;8.802;2023-02-15T08:38:45;1.80;99.90
49465;DHT22;35358;49.342;8.802;2023-02-15T08:41:17;1.80;99.90
49465;DHT22;35358;49.342;8.802;2023-02-15T08:43:47;1.70;99.90
49465;DHT22;35358;49.342;8.802;2023-02-15T08:46:14;1.50;99.90
49465;DHT22;35358;49.342;8.802;2023-02-15T08:48:40;1.50;99.90
49465;DHT22;35358;49.342;8.802;2023-02-15T08:51:08;1.60;99.90
49465;DHT22;35358;49.342;8.802;2023-02-15T08:53:38;1.60;99.90
49465;DHT22;35358;49.342;8.802;2023-02-15T08:56:04;1.70;99.90
49465;DHT22;35358;49.342;8.802;2023-02-15T08:58:30;1.90;99.90
49465;DHT22;35358;49.342;8.802;2023-02-15T09:00:59;1.90;99.90
49465;DHT22;35358;49.342;8.802;2023-02-15T09:03:27;2.00;99.90
49465;DHT22;35358;49.342;8.802;2023-02-15T09:05:57;1.90;99.90
49465;DHT22;35358;49.342;8.802;2023-02-15T09:08:25;1.90;99.90
49465;DHT22;35358;49.342;8.802;2023-02-15T09:10:51;2.00;99.90
49465;DHT22;35358;49.342;8.802;2023-02-15T09:13:17;2.00;99.90
49465;DHT22;35358;49.342;8.802;2023-02-15T09:15:42;2.00;99.90
49465;DHT22;35358;49.342;8.802;2023-02-15T09:18:12;2.20;99.90
49465;DHT22;35358;49.342;8.802;2023-02-15T09:20:44;2.20;99.90
49465;DHT22;35358;49.342;8.802;2023-02-15T09:23:12;2.30;99.90
49465;DHT22;35358;49.342;8.802;2023-02-15T09:25:39;2.20;99.90
49465;DHT22;35358;49.342;8.802;2023-02-15T09:28:05;2.10;99.90
49465;DHT22;35358;49.342;8.802;2023-02-15T09:30:33;2.10;99.90
49465;DHT22;35358;49.342;8.802;2023-02-15T09:32:58;2.10;99.90
49465;DHT22;35358;49.342;8.802;2023-02-15T09:35:24;2.10;99.90
49465;DHT22;35358;49.342;8.802;2023-02-15T09:37:50;2.00;99.90
49465;DHT22;35358;49.342;8.802;2023-02-15T09:40:18;2.30;99.90
49465;DHT22;35358;49.342;8.802;2023-02-15T09:42:53;2.20;99.90
49465;DHT22;35358;49.342;8.802;2023-02-15T09:48:52;2.10;99.90
49465;DHT22;35358;49.342;8.802;2023-02-15T09:56:48;1.90;99.90
49465;DHT22;35358;49.342;8.802;2023-02-15T09:59:37;1.80;99.90
49465;DHT22;35358;49.342;8.802;2023-02-15T10:05:39;2.20;99.90
49465;DHT22;35358;49.342;8.802;2023-02-15T10:10:45;2.30;99.90
49465;DHT22;35358;49.342;8.802;2023-02-15T10:13:31;2.40;99.90
49465;DHT22;35358;49.342;8.802;2023-02-15T10:16:27;2.40;99.90
49465;DHT22;35358;49.342;8.802;2023-02-15T10:21:58;2.40;99.90
49465;DHT22;35358;49.342;8.802;2023-02-15T10:27:16;2.40;99.90
49465;DHT22;35358;49.342;8.802;2023-02-15T10:30:10;2.40;99.90
49465;DHT22;35358;49.342;8.802;2023-02-15T10:32:49;2.20;99.90
49465;DHT22;35358;49.342;8.802;2023-02-15T10:40:46;2.30;99.90
49465;DHT22;35358;49.342;8.802;2023-02-15T10:56:55;3.30;99.90
49465;DHT22;35358;49.342;8.802;2023-02-15T11:02:02;3.10;99.90
49465;DHT22;35358;49.342;8.802;2023-02-15T11:04:40;3.10;99.90
49465;DHT22;35358;49.342;8.802;2023-02-15T11:07:16;3.10;99.90
49465;DHT22;35358;49.342;8.802;2023-02-15T11:10:15;3.00;99.90
49465;DHT22;35358;49.342;8.802;2023-02-15T11:12:47;2.80;99.90
49465;DHT22;35358;49.342;8.802;2023-02-15T11:15:21;2.60;99.90
49465;DHT22;35358;49.342;8.802;2023-02-15T11:23:35;2.90;99.90
49465;DHT22;35358;49.342;8.802;2023-02-15T11:26:08;3.00;99.90
49465;DHT22;35358;49.342;8.802;2023-02-15T11:28:58;3.00;99.90
49465;DHT22;35358;49.342;8.802;2023-02-15T11:31:26;3.00;99.90
49465;DHT22;35358;49.342;8.802;2023-02-15T11:34:02;3.10;99.90
49465;DHT22;35358;49.342;8.802;2023-02-15T11:36:34;3.10;99.90
49465;DHT22;35358;49.342;8.802;2023-02-15T11:39:05;3.00;99.90
49465;DHT22;35358;49.342;8.802;2023-02-15T11:41:40;2.90;99.90
49465;DHT22;35358;49.342;8.802;2023-02-15T11:44:10;3.20;99.90
49465;DHT22;35358;49.342;8.802;2023-02-15T11:46:37;3.10;99.90
49465;DHT22;35358;49.342;8.802;2023-02-15T11:51:43;3.30;99.90
49465;DHT22;35358;49.342;8.802;2023-02-15T11:54:11;3.50;99.90
49465;DHT22;35358;49.342;8.802;2023-02-15T11:56:39;3.50;99.90
49465;DHT22;35358;49.342;8.802;2023-02-15T11:59:14;3.90;99.90
49465;DHT22;35358;49.342;8.802;2023-02-15T12:01:49;4.10;99.90
49465;DHT22;35358;49.342;8.802;2023-02-15T12:04:31;4.10;99.90
49465;DHT22;35358;49.342;8.802;2023-02-15T12:12:31;4.40;99.90
49465;DHT22;35358;49.342;8.802;2023-02-15T12:15:02;4.40;99.90
49465;DHT22;35358;49.342;8.802;2023-02-15T12:17:33;4.50;99.90
49465;DHT22;35358;49.342;8.802;2023-02-15T12:20:28;4.60;99.90
49465;DHT22;35358;49.342;8.802;2023-02-15T12:23:02;4.70;99.90
49465;DHT22;35358;49.342;8.802;2023-02-15T12:27:56;4.60;99.90
49465;DHT22;35358;49.342;8.802;2023-02-15T12:30:36;4.60;99.90
49465;DHT22;35358;49.342;8.802;2023-02-15T12:35:47;4.60;99.90
49465;DHT22;35358;49.342;8.802;2023-02-15T12:40:40;4.60;99.90
49465;DHT22;35358;49.342;8.802;2023-02-15T12:43:29;4.40;99.90
49465;DHT22;35358;49.342;8.802;2023-02-15T12:46:12;4.40;99.90
49465;DHT22;35358;49.342;8.802;2023-02-15T12:48:39;4.40;99.90
49465;DHT22;35358;49.342;8.802;2023-02-15T12:51:09;4.70;99.90
49465;DHT22;35358;49.342;8.802;2023-02-15T12:53:41;4.90;99.90
49465;DHT22;35358;49.342;8.802;2023-02-15T12:56:09;5.00;99.90
49465;DHT22;35358;49.342;8.802;2023-02-15T12:58:41;5.30;99.90
49465;DHT22;35358;49.342;8.802;2023-02-15T13:04:00;5.60;99.90
49465;DHT22;35358;49.342;8.802;2023-02-15T13:06:27;5.40;99.90
49465;DHT22;35358;49.342;8.802;2023-02-15T13:09:05;5.20;99.90
49465;DHT22;35358;49.342;8.802;2023-02-15T13:11:32;5.30;99.90
49465;DHT22;35358;49.342;8.802;2023-02-15T13:14:01;5.40;99.90
49465;DHT22;35358;49.342;8.802;2023-02-15T13:18:57;5.30;99.90
49465;DHT22;35358;49.342;8.802;2023-02-15T13:21:30;5.60;99.90
49465;DHT22;35358;49.342;8.802;2023-02-15T13:26:32;5.60;99.90
49465;DHT22;35358;49.342;8.802;2023-02-15T13:29:26;5.70;99.90
49465;DHT22;35358;49.342;8.802;2023-02-15T13:31:51;5.60;99.90
49465;DHT22;35358;49.342;8.802;2023-02-15T13:34:37;5.70;99.90
49465;DHT22;35358;49.342;8.802;2023-02-15T13:40:07;6.20;99.90
49465;DHT22;35358;49.342;8.802;2023-02-15T13:42:53;6.30;99.90
49465;DHT22;35358;49.342;8.802;2023-02-15T13:48:11;6.80;99.90
49465;DHT22;35358;49.342;8.802;2023-02-15T13:50:56;6.80;99.90
49465;DHT22;35358;49.342;8.802;2023-02-15T14:01:58;7.10;99.90
49465;DHT22;35358;49.342;8.802;2023-02-15T14:07:39;7.00;99.90
49465;DHT22;35358;49.342;8.802;2023-02-15T14:15:48;7.40;99.90
49465;DHT22;35358;49.342;8.802;2023-02-15T14:18:48;7.50;99.90
49465;DHT22;35358;49.342;8.802;2023-02-15T14:21:34;7.70;99.90
49465;DHT22;35358;49.342;8.802;2023-02-15T14:24:32;7.80;99.90
49465;DHT22;35358;49.342;8.802;2023-02-15T14:27:18;7.40;99.90
49465;DHT22;35358;49.342;8.802;2023-02-15T14:29:57;7.90;99.90
49465;DHT22;35358;49.342;8.802;2023-02-15T14:32:53;8.20;99.90
49465;DHT22;35358;49.342;8.802;2023-02-15T14:35:27;8.30;99.90
49465;DHT22;35358;49.342;8.802;2023-02-15T14:44:05;8.70;99.90
49465;DHT22;35358;49.342;8.802;2023-02-15T14:46:47;8.50;99.90
49465;DHT22;35358;49.342;8.802;2023-02-15T14:49:25;8.30;99.90
49465;DHT22;35358;49.342;8.802;2023-02-15T15:04:36;8.80;99.90
49465;DHT22;35358;49.342;8.802;2023-02-15T15:09:41;8.60;99.90
49465;DHT22;35358;49.342;8.802;2023-02-15T15:14:53;8.40;99.90
49465;DHT22;35358;49.342;8.802;2023-02-15T15:22:31;8.70;99.90
49465;DHT22;35358;49.342;8.802;2023-02-15T15:25:01;8.80;99.90
49465;DHT22;35358;49.342;8.802;2023-02-15T15:33:08;9.00;99.90
49465;DHT22;35358;49.342;8.802;2023-02-15T15:49:23;8.10;99.90
49465;DHT22;35358;49.342;8.802;2023-02-15T15:51:50;8.30;99.90
49465;DHT22;35358;49.342;8.802;2023-02-15T15:54:21;8.30;99.90
49465;DHT22;35358;49.342;8.802;2023-02-15T15:56:53;8.40;99.90
49465;DHT22;35358;49.342;8.802;2023-02-15T15:59:23;8.30;99.90
49465;DHT22;35358;49.342;8.802;2023-02-15T16:01:52;8.30;99.90
49465;DHT22;35358;49.342;8.802;2023-02-15T16:04:27;8.10;99.90
49465;DHT22;35358;49.342;8.802;2023-02-15T16:06:55;7.80;99.90
49465;DHT22;35358;49.342;8.802;2023-02-15T16:09:24;7.80;99.90
49465;DHT22;35358;49.342;8.802;2023-02-15T16:11:55;8.20;99.90
49465;DHT22;35358;49.342;8.802;2023-02-15T16:14:40;7.80;99.90
49465;DHT22;35358;49.342;8.802;2023-02-15T16:17:13;7.30;99.90
49465;DHT22;35358;49.342;8.802;2023-02-15T16:19:41;6.90;99.90
49465;DHT22;35358;49.342;8.802;2023-02-15T16:22:18;6.80;99.90
49465;DHT22;35358;49.342;8.802;2023-02-15T16:27:33;6.40;99.90
49465;DHT22;35358;49.342;8.802;2023-02-15T16:30:32;6.00;99.90
49465;DHT22;35358;49.342;8.802;2023-02-15T16:33:10;5.80;99.90
49465;DHT22;35358;49.342;8.802;2023-02-15T16:35:40;5.60;99.90
49465;DHT22;35358;49.342;8.802;2023-02-15T16:38:09;5.50;99.90
49465;DHT22;35358;49.342;8.802;2023-02-15T16:43:13;5.30;99.90
49465;DHT22;35358;49.342;8.802;2023-02-15T16:45:40;5.20;99.90
49465;DHT22;35358;49.342;8.802;2023-02-15T16:48:12;5.00;99.90
49465;DHT22;35358;49.342;8.802;2023-02-15T16:50:50;4.80;99.90
49465;DHT22;35358;49.342;8.802;2023-02-15T16:53:27;4.70;99.90
49465;DHT22;35358;49.342;8.802;2023-02-15T16:55:58;4.60;99.90
49465;DHT22;35358;49.342;8.802;2023-02-15T16:58:40;4.50;99.90
49465;DHT22;35358;49.342;8.802;2023-02-15T17:01:11;4.40;99.90
49465;DHT22;35358;49.342;8.802;2023-02-15T17:03:39;4.30;99.90
49465;DHT22;35358;49.342;8.802;2023-02-15T17:06:22;4.20;99.90
49465;DHT22;35358;49.342;8.802;2023-02-15T17:08:48;4.10;99.90
49465;DHT22;35358;49.342;8.802;2023-02-15T17:11:21;3.90;99.90
49465;DHT22;35358;49.342;8.802;2023-02-15T17:16:53;3.80;99.90
49465;DHT22;35358;49.342;8.802;2023-02-15T17:19:28;3.70;99.90
49465;DHT22;35358;49.342;8.802;2023-02-15T17:22:02;3.70;99.90
49465;DHT22;35358;49.342;8.802;2023-02-15T17:24:42;3.70;99.90
49465;DHT22;35358;49.342;8.802;2023-02-15T17:27:23;3.60;99.90
49465;DHT22;35358;49.342;8.802;2023-02-15T17:29:57;3.60;99.90
49465;DHT22;35358;49.342;8.802;2023-02-15T17:32:26;3.60;99.90
49465;DHT22;35358;49.342;8.802;2023-02-15T17:37:42;3.40;99.90
49465;DHT22;35358;49.342;8.802;2023-02-15T17:40:24;3.50;99.90
49465;DHT22;35358;49.342;8.802;2023-02-15T17:42:51;3.40;99.90
49465;DHT22;35358;49.342;8.802;2023-02-15T17:45:19;3.30;99.90
49465;DHT22;35358;49.342;8.802;2023-02-15T17:47:49;3.30;99.90
49465;DHT22;35358;49.342;8.802;2023-02-15T17:50:23;3.20;99.90
49465;DHT22;35358;49.342;8.802;2023-02-15T17:52:51;3.10;99.90
49465;DHT22;35358;49.342;8.802;2023-02-15T17:55:19;3.10;99.90
49465;DHT22;35358;49.342;8.802;2023-02-15T17:58:03;2.90;99.90
49465;DHT22;35358;49.342;8.802;2023-02-15T18:00:30;2.90;99.90
49465;DHT22;35358;49.342;8.802;2023-02-15T18:03:17;2.90;99.90
49465;DHT22;35358;49.342;8.802;2023-02-15T18:06:01;2.80;99.90
49465;DHT22;35358;49.342;8.802;2023-02-15T18:08:45;2.80;99.90
49465;DHT22;35358;49.342;8.802;2023-02-15T18:11:29;2.70;99.90
49465;DHT22;35358;49.342;8.802;2023-02-15T18:14:09;2.60;99.90
49465;DHT22;35358;49.342;8.802;2023-02-15T18:16:40;2.50;99.90
49465;DHT22;35358;49.342;8.802;2023-02-15T18:19:20;2.30;99.90
49465;DHT22;35358;49.342;8.802;2023-02-15T18:21:47;2.30;99.90
49465;DHT22;35358;49.342;8.802;2023-02-15T18:24:23;2.30;99.90
49465;DHT22;35358;49.342;8.802;2023-02-15T18:26:51;2.30;99.90
49465;DHT22;35358;49.342;8.802;2023-02-15T18:29:17;2.30;99.90
49465;DHT22;35358;49.342;8.802;2023-02-15T18:31:43;2.10;99.90
49465;DHT22;35358;49.342;8.802;2023-02-15T18:34:28;2.10;99.90
49465;DHT22;35358;49.342;8.802;2023-02-15T18:36:59;1.90;99.90
49465;DHT22;35358;49.342;8.802;2023-02-15T18:41:54;1.90;99.90
49465;DHT22;35358;49.342;8.802;2023-02-15T18:44:25;1.90;99.90
49465;DHT22;35358;49.342;8.802;2023-02-15T18:46:53;1.90;99.90
49465;DHT22;35358;49.342;8.802;2023-02-15T18:49:19;1.90;99.90
49465;DHT22;35358;49.342;8.802;2023-02-15T18:51:44;1.90;99.90
49465;DHT22;35358;49.342;8.802;2023-02-15T18:54:21;1.90;99.90
49465;DHT22;35358;49.342;8.802;2023-02-15T18:56:55;1.80;99.90
49465;DHT22;35358;49.342;8.802;2023-02-15T18:59:24;1.70;99.90
49465;DHT22;35358;49.342;8.802;2023-02-15T19:01:53;1.80;99.90
49465;DHT22;35358;49.342;8.802;2023-02-15T19:04:19;1.90;99.90
49465;DHT22;35358;49.342;8.802;2023-02-15T19:06:46;1.90;99.90
49465;DHT22;35358;49.342;8.802;2023-02-15T19:09:18;1.90;99.90
49465;DHT22;35358;49.342;8.802;2023-02-15T19:11:51;1.90;99.90
49465;DHT22;35358;49.342;8.802;2023-02-15T19:14:35;1.90;99.90
49465;DHT22;35358;49.342;8.802;2023-02-15T19:17:01;1.90;99.90
49465;DHT22;35358;49.342;8.802;2023-02-15T19:19:28;1.90;99.90
49465;DHT22;35358;49.342;8.802;2023-02-15T19:21:54;1.90;99.90
49465;DHT22;35358;49.342;8.802;2023-02-15T19:24:39;1.80;99.90
49465;DHT22;35358;49.342;8.802;2023-02-15T19:27:21;1.70;99.90
49465;DHT22;35358;49.342;8.802;2023-02-15T19:29:48;1.70;99.90
49465;DHT22;35358;49.342;8.802;2023-02-15T19:32:19;1.70;99.90
49465;DHT22;35358;49.342;8.802;2023-02-15T19:34:47;1.60;99.90
49465;DHT22;35358;49.342;8.802;2023-02-15T19:37:40;1.50;99.90